Time;durP1;ratioP1;P1;durP2;ratioP2;P2;SDS_P1;SDS_P2;PMS_P1;PMS_P2;Temp;Humidity;BMP_temperature;BMP_pressure;BME280_temperature;BME280_humidity;BME280_pressure;Samples;Min_cycle;Max_cycle;Signal;HPM_P1;HPM_P2
2022/08/14 00:00:10;;;;;;;6.50;5.32;;;;;;;23.11;49.22;99377.00;12234692;19;20352;-82
2022/08/14 00:04:14;;;;;;;7.15;5.53;;;;;;;23.09;49.21;99376.50;12233788;19;20013;-83
2022/08/14 00:08:36;;;;;;;7.40;5.25;;;;;;;23.05;51.03;99369.91;12212013;19;20003;-82
2022/08/14 00:12:52;;;;;;;12.00;5.93;;;;;;;23.05;50.79;99355.84;12233706;19;20034;-83
2022/08/14 00:16:57;;;;;;;8.25;5.93;;;;;;;23.01;51.62;99354.91;12206974;19;20082;-82
2022/08/14 00:21:01;;;;;;;10.00;6.05;;;;;;;22.97;51.83;99349.16;12233182;19;20002;-82
2022/08/14 00:25:06;;;;;;;7.40;5.90;;;;;;;22.94;51.71;99347.03;12230637;19;20010;-84
2022/08/14 00:29:08;;;;;;;7.57;5.68;;;;;;;22.90;52.28;99345.22;12208763;19;20018;-84
2022/08/14 00:33:09;;;;;;;13.85;6.28;;;;;;;22.85;53.24;99340.66;12230773;19;20003;-83
2022/08/14 00:37:17;;;;;;;7.78;6.32;;;;;;;22.85;53.92;99331.41;12229780;19;20348;-83
2022/08/14 00:41:19;;;;;;;7.80;6.55;;;;;;;22.85;53.08;99321.00;12209165;19;20082;-83
2022/08/14 00:45:20;;;;;;;8.25;6.32;;;;;;;22.76;53.89;99311.81;12228616;19;20006;-82
2022/08/14 00:49:22;;;;;;;7.88;6.22;;;;;;;22.72;53.87;99317.28;12253571;19;20018;-84
2022/08/14 00:53:25;;;;;;;7.05;6.05;;;;;;;22.68;54.43;99315.50;12220302;19;20010;-83
2022/08/14 00:57:29;;;;;;;8.30;6.90;;;;;;;22.65;54.59;99317.00;12230707;19;20086;-83
2022/08/14 01:01:34;;;;;;;7.47;5.82;;;;;;;22.58;55.23;99316.75;12210456;19;20013;-83
2022/08/14 01:10:03;;;;;;;8.85;7.10;;;;;;;22.54;55.92;99304.53;12250623;19;20013;-85
2022/08/14 01:14:05;;;;;;;9.25;6.93;;;;;;;22.54;56.54;99298.94;12258447;19;19999;-84
2022/08/14 01:23:01;;;;;;;9.13;7.43;;;;;;;22.42;57.12;99290.44;12210643;19;20018;-84
2022/08/14 01:27:05;;;;;;;10.15;7.60;;;;;;;22.38;57.51;99292.28;12229674;19;20048;-84
2022/08/14 01:31:11;;;;;;;9.20;7.68;;;;;;;22.35;57.18;99298.59;12230049;19;20003;-83
2022/08/14 01:35:15;;;;;;;9.30;6.38;;;;;;;22.28;57.92;99297.16;12206018;19;20007;-82
2022/08/14 01:39:37;;;;;;;9.13;8.07;;;;;;;22.23;58.20;99296.53;12231110;19;20471;-82
2022/08/14 01:43:44;;;;;;;8.77;7.53;;;;;;;22.18;58.98;99289.09;12207092;19;20011;-82
2022/08/14 01:47:57;;;;;;;9.10;6.85;;;;;;;22.26;57.97;99290.22;12228858;19;20033;-83
2022/08/14 01:52:04;;;;;;;10.52;7.80;;;;;;;22.12;59.12;99279.22;12229410;19;20034;-83
2022/08/14 01:56:19;;;;;;;10.45;6.93;;;;;;;22.06;58.85;99277.78;12204647;19;20014;-83
2022/08/14 02:00:21;;;;;;;9.77;8.10;;;;;;;22.01;59.98;99266.72;12229625;19;20014;-83
2022/08/14 02:04:33;;;;;;;9.95;8.15;;;;;;;21.98;59.95;99264.59;12206046;19;20547;-83
2022/08/14 02:08:55;;;;;;;10.00;8.27;;;;;;;21.92;60.33;99252.78;12227492;19;20042;-82
2022/08/14 02:12:57;;;;;;;10.18;8.00;;;;;;;21.86;60.32;99240.09;12225822;19;20083;-83
2022/08/14 02:17:00;;;;;;;10.00;8.85;;;;;;;21.80;60.43;99233.88;12203116;19;20010;-83
2022/08/14 02:21:03;;;;;;;11.52;8.45;;;;;;;21.72;61.56;99220.72;12225436;19;20010;-83
2022/08/14 02:25:05;;;;;;;11.95;8.43;;;;;;;21.67;61.60;99215.31;12224049;19;20010;-83
2022/08/14 02:29:10;;;;;;;10.43;7.65;;;;;;;21.62;62.82;99215.47;12203626;19;20033;-82
2022/08/14 02:33:12;;;;;;;10.32;8.45;;;;;;;21.57;63.06;99208.09;12224920;19;20027;-82
2022/08/14 02:37:14;;;;;;;12.20;9.23;;;;;;;21.55;62.71;99218.00;12222902;19;20011;-83
2022/08/14 02:41:16;;;;;;;9.23;7.90;;;;;;;21.50;63.13;99216.19;12206873;19;20024;-82
2022/08/14 02:45:20;;;;;;;12.27;8.40;;;;;;;21.47;63.07;99221.66;12236870;19;20010;-82
2022/08/14 02:49:27;;;;;;;11.75;8.40;;;;;;;21.44;63.39;99211.13;12237624;19;20526;-83
2022/08/14 02:53:38;;;;;;;10.02;8.70;;;;;;;21.43;63.57;99215.91;12215106;19;20831;-82
2022/08/14 02:57:43;;;;;;;12.25;8.00;;;;;;;21.37;65.36;99212.47;12235608;19;20022;-84
2022/08/14 03:01:52;;;;;;;13.43;9.40;;;;;;;21.36;64.32;99208.03;12213936;19;20019;-83
2022/08/14 03:05:55;;;;;;;10.32;9.23;;;;;;;21.32;64.92;99209.00;12233713;19;20397;-83
2022/08/14 03:09:58;;;;;;;10.38;8.27;;;;;;;21.27;65.60;99190.41;12235439;19;20011;-82
2022/08/14 03:14:21;;;;;;;;;;;;;;;21.28;64.88;99191.22;12225658;19;20010;-83
2022/08/14 03:18:26;;;;;;;10.75;8.45;;;;;;;21.23;64.78;99197.84;12236529;19;19927;-82
2022/08/14 03:22:33;;;;;;;12.30;9.52;;;;;;;21.18;64.82;99198.03;12217742;19;20010;-84
2022/08/14 03:26:35;;;;;;;10.88;8.57;;;;;;;21.12;65.29;99193.78;12234875;19;20007;-83
2022/08/14 03:30:40;;;;;;;10.55;8.07;;;;;;;21.10;65.63;99202.50;12235989;19;20015;-82
2022/08/14 03:34:44;;;;;;;12.70;8.73;;;;;;;21.07;65.84;99205.97;12211430;19;20018;-82
2022/08/14 03:38:57;;;;;;;10.95;9.20;;;;;;;21.05;65.81;99213.06;12233250;19;20022;-82
2022/08/14 03:43:19;;;;;;;10.07;8.45;;;;;;;20.97;66.01;99211.94;12235794;19;20066;-82
2022/08/14 03:47:22;;;;;;;13.07;9.00;;;;;;;20.86;65.94;99199.44;12210034;19;20010;-82
2022/08/14 03:51:44;;;;;;;11.73;8.68;;;;;;;20.70;66.77;99193.53;12232288;19;20002;-83
2022/08/14 03:55:47;;;;;;;11.35;8.45;;;;;;;20.55;67.38;99208.06;12207465;19;20023;-81
2022/08/14 03:59:52;;;;;;;12.75;9.00;;;;;;;20.40;67.38;99204.56;12233754;19;20007;-83
2022/08/14 04:04:04;;;;;;;12.27;9.23;;;;;;;20.25;67.82;99202.28;12234715;19;20014;-82
2022/08/14 04:08:08;;;;;;;12.70;9.50;;;;;;;20.13;68.55;99199.31;12213539;19;20025;-83
2022/08/14 04:12:30;;;;;;;10.82;9.10;;;;;;;20.03;68.58;99198.50;12232939;19;20033;-82
2022/08/14 04:16:33;;;;;;;13.85;9.55;;;;;;;19.95;69.25;99213.28;12210032;19;20010;-83
2022/08/14 04:20:34;;;;;;;11.43;9.55;;;;;;;19.87;69.83;99213.25;12233148;19;20007;-82
2022/08/14 04:24:52;;;;;;;10.43;8.95;;;;;;;19.76;70.62;99210.78;12230714;19;20006;-82
2022/08/14 04:28:54;;;;;;;12.18;8.57;;;;;;;19.72;71.09;99209.81;12209411;19;20023;-83
2022/08/14 04:33:15;;;;;;;13.43;9.85;;;;;;;19.67;71.76;99212.75;12230360;19;20019;-81
2022/08/14 04:46:17;;;;;;;10.90;8.75;;;;;;;19.58;72.43;99184.72;12229953;19;20089;-82
2022/08/14 04:50:41;;;;;;;14.90;9.82;;;;;;;19.60;72.63;99181.59;12208638;19;20038;-81
2022/08/14 04:54:45;;;;;;;11.30;9.30;;;;;;;19.64;72.70;99190.19;12227092;19;20010;-82
2022/08/14 04:58:48;;;;;;;12.35;8.95;;;;;;;19.67;72.68;99186.78;12205924;19;20000;-83
2022/08/14 05:02:55;;;;;;;10.27;8.95;;;;;;;19.71;72.58;99187.75;12227753;19;20100;-83
2022/08/14 05:06:57;;;;;;;11.57;9.73;;;;;;;19.78;72.63;99188.06;12227374;19;20018;-82
2022/08/14 05:11:01;;;;;;;11.37;9.60;;;;;;;19.81;72.38;99193.06;12205488;19;20023;-83
2022/08/14 05:15:03;;;;;;;13.30;9.77;;;;;;;19.87;72.72;99179.72;12228433;19;20511;-82
2022/08/14 05:19:07;;;;;;;12.53;9.40;;;;;;;19.96;72.68;99181.38;12229529;19;20632;-82
2022/08/14 05:23:28;;;;;;;12.73;9.98;;;;;;;20.06;73.24;99185.00;12209445;19;20017;-82
2022/08/14 05:27:30;;;;;;;11.85;9.60;;;;;;;20.18;72.90;99186.00;12228413;19;20507;-83
2022/08/14 05:31:31;;;;;;;12.32;9.93;;;;;;;20.26;73.24;99184.34;12208347;19;20410;-81
2022/08/14 05:35:43;;;;;;;12.13;9.20;;;;;;;20.37;72.52;99185.66;12227657;19;20014;-82
2022/08/14 05:39:47;;;;;;;10.98;9.80;;;;;;;20.40;72.21;99179.38;12228213;19;20010;-83
2022/08/14 05:43:49;;;;;;;12.37;9.77;;;;;;;20.45;72.36;99179.22;12205207;19;20006;-83
2022/08/14 05:47:51;;;;;;;12.52;9.73;;;;;;;20.54;72.36;99173.66;12226865;19;20014;-81
2022/08/14 05:51:53;;;;;;;14.00;9.88;;;;;;;20.62;71.86;99177.59;12227856;19;20010;-83
2022/08/14 05:55:56;;;;;;;13.15;10.05;;;;;;;20.70;71.75;99176.75;12202562;19;20014;-82
2022/08/14 05:59:57;;;;;;;15.30;10.40;;;;;;;20.75;71.96;99176.56;12226624;19;20011;-82
2022/08/14 06:04:00;;;;;;;12.60;9.73;;;;;;;20.85;72.01;99181.84;12225786;19;20017;-82
2022/08/14 06:08:14;;;;;;;12.95;11.00;;;;;;;20.96;72.51;99187.88;12203104;19;20412;-82
2022/08/14 06:12:36;;;;;;;13.55;10.60;;;;;;;21.20;71.28;99178.06;12227300;19;20002;-82
2022/08/14 06:16:57;;;;;;;13.98;10.10;;;;;;;21.36;70.89;99184.81;12200438;19;20010;-81
2022/08/14 06:21:03;;;;;;;14.13;10.98;;;;;;;21.53;70.32;99187.50;12225570;19;20351;-83
2022/08/14 06:25:14;;;;;;;13.77;10.25;;;;;;;21.72;69.62;99183.47;12224529;19;20027;-82
2022/08/14 06:29:18;;;;;;;11.98;9.80;;;;;;;21.89;68.42;99188.94;12203045;19;20013;-82
2022/08/14 06:33:22;;;;;;;13.27;10.27;;;;;;;22.03;68.30;99180.25;12221249;19;19998;-82
2022/08/14 06:37:50;;;;;;;11.77;9.07;;;;;;;22.25;67.75;99177.16;12203126;19;20007;-82
2022/08/14 06:41:52;;;;;;;12.93;10.65;;;;;;;22.45;66.62;99178.28;12227115;19;20384;-83
2022/08/14 06:46:00;;;;;;;12.27;10.00;;;;;;;22.62;66.20;99168.06;12228555;19;20436;-82
2022/08/14 06:50:05;;;;;;;13.32;9.68;;;;;;;22.78;65.29;99159.78;12204218;19;20010;-82
2022/08/14 06:54:08;;;;;;;10.55;9.45;;;;;;;22.96;64.99;99150.03;12224392;19;20462;-82
2022/08/14 06:58:15;;;;;;;11.30;10.10;;;;;;;23.12;63.84;99139.75;12225460;19;20027;-83
2022/08/14 07:06:53;;;;;;;12.10;9.95;;;;;;;23.53;62.16;99131.41;12223393;19;20007;-82
2022/08/14 07:11:02;;;;;;;12.13;9.75;;;;;;;23.75;61.42;99119.72;12199900;19;20368;-82
2022/08/14 07:15:05;;;;;;;12.48;9.32;;;;;;;23.92;60.54;99107.38;12220060;19;20019;-82
2022/08/14 07:19:08;;;;;;;12.93;9.88;;;;;;;24.05;60.15;99103.31;12220501;19;20019;-82
2022/08/14 07:23:10;;;;;;;10.50;9.40;;;;;;;24.14;58.49;99100.38;12204486;19;20011;-82
2022/08/14 07:27:21;;;;;;;13.02;10.00;;;;;;;24.38;58.26;99099.44;12228939;19;20062;-83
2022/08/14 07:31:26;;;;;;;12.30;9.82;;;;;;;24.69;57.23;99110.00;12228380;19;20467;-83
2022/08/14 07:35:28;;;;;;;11.07;9.67;;;;;;;24.96;56.36;99104.66;12282251;19;20007;-84
2022/08/14 07:39:37;;;;;;;12.88;9.18;;;;;;;25.18;55.63;99111.66;12280883;19;20007;-83
2022/08/14 07:43:44;;;;;;;12.23;9.75;;;;;;;25.30;54.83;99119.22;12215066;19;20496;-83
2022/08/14 07:47:56;;;;;;;;;;;;;;;25.44;54.60;99111.91;12236238;19;20015;-84
2022/08/14 07:52:02;;;;;;;12.73;9.63;;;;;;;25.63;53.68;99124.41;12237440;19;20361;-82
2022/08/14 07:56:04;;;;;;;12.77;9.57;;;;;;;25.81;53.03;99122.81;12212698;19;20010;-84
2022/08/14 08:00:27;;;;;;;11.15;8.60;;;;;;;26.15;52.11;99117.56;12236994;19;20007;-83
2022/08/14 08:04:40;;;;;;;9.75;8.75;;;;;;;26.51;50.70;99124.78;12213530;19;20014;-82
2022/08/14 08:08:45;;;;;;;10.52;8.88;;;;;;;26.84;49.78;99128.22;12235337;19;20006;-83
2022/08/14 08:13:11;;;;;;;13.55;8.73;;;;;;;27.09;48.61;99125.81;12237648;19;20003;-83
2022/08/14 08:17:14;;;;;;;13.02;8.35;;;;;;;27.41;47.88;99123.56;12214687;19;20373;-84
2022/08/14 08:21:16;;;;;;;9.55;8.55;;;;;;;27.66;46.56;99109.78;12236196;19;20011;-84
2022/08/14 08:25:18;;;;;;;10.18;8.63;;;;;;;27.82;46.16;99113.31;12234317;19;20013;-83
2022/08/14 08:29:23;;;;;;;9.10;8.20;;;;;;;28.14;45.66;99107.28;12212650;19;20006;-83
2022/08/14 08:33:32;;;;;;;9.20;8.20;;;;;;;28.30;44.78;99104.22;12234980;19;20383;-83
2022/08/14 08:37:37;;;;;;;9.98;8.68;;;;;;;28.36;44.15;99097.00;12212863;19;20011;-83
2022/08/14 08:41:46;;;;;;;11.75;8.18;;;;;;;28.50;43.52;99107.72;12234433;19;20006;-83
2022/08/14 08:46:02;;;;;;;11.05;8.43;;;;;;;28.55;42.88;99096.84;12231559;19;20014;-83
2022/08/14 08:50:14;;;;;;;9.23;8.07;;;;;;;28.71;42.20;99095.81;12211509;19;20011;-83
2022/08/14 08:54:30;;;;;;;9.07;7.63;;;;;;;28.96;41.86;99105.34;12230386;19;20003;-83
2022/08/14 08:58:36;;;;;;;8.73;7.83;;;;;;;29.14;41.19;99107.56;12207495;19;20079;-80
2022/08/14 09:02:43;;;;;;;9.65;7.70;;;;;;;29.26;41.46;99095.91;12234131;19;20478;-81
2022/08/14 09:06:46;;;;;;;8.80;7.70;;;;;;;29.38;39.85;99104.13;12229574;19;20014;-81
2022/08/14 09:11:11;;;;;;;9.48;8.15;;;;;;;29.57;40.27;99105.06;12210789;19;20013;-82
2022/08/14 09:15:21;;;;;;;8.52;7.63;;;;;;;29.94;39.84;99087.88;12230001;19;20384;-81
2022/08/14 09:19:26;;;;;;;8.55;7.65;;;;;;;30.20;38.79;99081.94;12230991;19;20018;-82
2022/08/14 09:23:27;;;;;;;14.68;7.50;;;;;;;30.32;37.77;99080.75;12208612;19;20096;-81
2022/08/14 09:27:49;;;;;;;11.07;6.85;;;;;;;30.45;37.13;99078.34;12229693;19;20018;-81
2022/08/14 09:31:55;;;;;;;8.63;7.05;;;;;;;30.67;37.09;99073.56;12206970;19;20399;-81
2022/08/14 09:36:17;;;;;;;9.32;6.63;;;;;;;30.92;36.39;99067.09;12240514;19;20024;-82
2022/08/14 09:40:57;;;;;;;8.15;6.70;;;;;;;31.17;35.31;99059.38;12278319;19;20010;-84
2022/08/14 09:45:14;;;;;;;9.35;6.97;;;;;;;31.09;34.21;99052.06;12174560;19;2004168;-82
2022/08/14 09:49:30;;;;;;;8.10;6.13;;;;;;;31.06;33.76;99056.53;12278678;19;19999;-80
2022/08/14 09:54:01;;;;;;;9.05;6.30;;;;;;;31.08;33.55;99041.91;12225402;19;20014;-82
2022/08/14 09:58:22;;;;;;;7.53;5.82;;;;;;;31.30;33.51;99043.53;12237532;19;20475;-81
2022/08/14 10:02:31;;;;;;;12.95;6.13;;;;;;;31.48;32.94;99032.13;12214632;19;20040;-82
2022/08/14 10:06:44;;;;;;;7.70;6.90;;;;;;;31.54;32.37;99018.28;12229215;19;20007;-81
2022/08/14 10:10:47;;;;;;;7.65;6.38;;;;;;;31.57;33.06;99022.34;12208556;19;20020;-82
2022/08/14 10:15:13;;;;;;;8.15;6.05;;;;;;;31.78;32.54;99019.44;12230906;19;20014;-82
2022/08/14 10:19:18;;;;;;;7.43;6.60;;;;;;;31.73;32.11;99019.84;12228207;19;20487;-81
2022/08/14 10:23:23;;;;;;;6.45;5.85;;;;;;;31.87;31.80;99022.66;12209267;19;20011;-82
2022/08/14 10:27:27;;;;;;;6.13;5.53;;;;;;;32.30;31.42;99013.09;12230543;19;20007;-81
2022/08/14 10:31:31;;;;;;;6.00;5.40;;;;;;;32.53;30.19;98996.28;12209990;19;20006;-82
2022/08/14 10:35:43;;;;;;;6.47;5.60;;;;;;;32.63;30.12;99003.97;12225521;19;20082;-81
2022/08/14 10:40:01;;;;;;;6.10;5.50;;;;;;;32.79;29.43;99006.28;12230070;19;20007;-81
2022/08/14 10:44:20;;;;;;;6.07;5.47;;;;;;;32.64;29.48;98994.16;12207343;19;20006;-81
2022/08/14 10:48:22;;;;;;;6.47;5.88;;;;;;;32.85;29.75;98986.69;12229923;19;20081;-83
2022/08/14 10:52:42;;;;;;;7.65;5.88;;;;;;;33.33;29.18;98988.69;12209828;19;20119;-82
2022/08/14 10:56:44;;;;;;;7.65;5.35;;;;;;;33.48;28.37;98983.63;12226959;19;20006;-82
2022/08/14 11:00:56;;;;;;;5.85;4.95;;;;;;;33.20;28.32;98973.31;12222307;19;20006;-83
2022/08/14 11:05:07;;;;;;;7.40;5.07;;;;;;;33.49;27.69;98953.84;12217879;19;20017;-83
2022/08/14 11:09:13;;;;;;;8.63;5.13;;;;;;;33.97;26.96;98950.81;12240476;19;20014;-84
2022/08/14 11:13:21;;;;;;;5.93;5.05;;;;;;;34.24;26.61;98939.44;12240850;19;20006;-82
2022/08/14 11:17:27;;;;;;;7.15;5.10;;;;;;;34.29;25.85;98935.25;12215075;19;20010;-84
2022/08/14 11:21:35;;;;;;;6.72;5.70;;;;;;;34.43;26.59;98923.59;12240652;19;20068;-83
2022/08/14 11:25:44;;;;;;;6.00;5.18;;;;;;;34.56;26.08;98908.72;12215870;19;20007;-82
2022/08/14 11:29:59;;;;;;;6.13;4.82;;;;;;;34.67;25.18;98907.28;12239705;19;20006;-83
2022/08/14 11:34:20;;;;;;;5.53;4.72;;;;;;;34.79;24.98;98897.28;12239611;19;20007;-83
2022/08/14 11:38:39;;;;;;;5.97;5.05;;;;;;;34.70;24.86;98888.44;12217650;19;20007;-82
2022/08/14 11:42:46;;;;;;;5.38;4.68;;;;;;;34.83;24.49;98905.78;12237966;19;20027;-82
2022/08/14 11:47:17;;;;;;;8.48;5.22;;;;;;;35.05;23.81;98892.72;12215991;19;20050;-82
2022/08/14 11:51:23;;;;;;;6.63;4.87;;;;;;;35.69;23.68;98890.63;12236091;19;20007;-83
2022/08/14 11:55:37;;;;;;;5.78;4.82;;;;;;;36.28;23.24;98872.47;12213761;19;20263;-83
2022/08/14 11:59:41;;;;;;;5.80;5.30;;;;;;;36.76;22.67;98872.94;12235090;19;20014;-83
2022/08/14 12:03:46;;;;;;;5.93;5.18;;;;;;;37.00;21.87;98882.16;12235644;19;20021;-84
2022/08/14 12:07:59;;;;;;;5.50;5.00;;;;;;;37.45;21.65;98871.84;12214740;19;20030;-83
2022/08/14 12:12:16;;;;;;;6.50;4.85;;;;;;;38.15;21.22;98879.59;12234486;19;20031;-83
2022/08/14 12:16:38;;;;;;;;;;;;;;;38.23;20.72;98868.69;12213037;19;20006;-84
2022/08/14 12:20:42;;;;;;;6.45;5.38;;;;;;;38.60;19.98;98874.88;12232207;19;19911;-83
2022/08/14 12:24:50;;;;;;;5.43;4.93;;;;;;;39.15;19.93;98864.69;12235786;19;20006;-83
2022/08/14 12:29:07;;;;;;;4.82;4.43;;;;;;;39.70;18.89;98867.16;12219782;19;20014;-84
2022/08/14 12:33:21;;;;;;;8.10;4.80;;;;;;;39.93;19.03;98854.34;12249273;19;20006;-83
2022/08/14 12:37:30;;;;;;;5.72;5.22;;;;;;;40.42;18.39;98844.13;12248379;19;20483;-83
2022/08/14 12:41:36;;;;;;;6.63;5.40;;;;;;;40.88;18.08;98832.66;12214552;19;20010;-84
2022/08/14 12:45:38;;;;;;;5.85;4.95;;;;;;;40.72;17.53;98834.56;12237397;19;20092;-85
2022/08/14 12:49:53;;;;;;;6.85;4.75;;;;;;;41.05;17.12;98813.72;12213346;19;20003;-84
2022/08/14 12:54:10;;;;;;;6.22;4.88;;;;;;;41.40;17.25;98802.59;12230559;19;20023;-84
2022/08/14 12:58:28;;;;;;;5.88;4.75;;;;;;;40.43;17.81;98793.78;12210780;19;20368;-83
2022/08/14 13:02:54;;;;;;;4.80;4.30;;;;;;;40.93;17.33;98786.63;12232985;19;20026;-84
2022/08/14 13:07:07;;;;;;;5.53;4.80;;;;;;;41.64;16.68;98775.91;12231637;19;20014;-85
2022/08/14 13:11:13;;;;;;;4.93;4.53;;;;;;;42.46;15.97;98774.72;12211485;19;20301;-83
2022/08/14 13:15:17;;;;;;;5.05;4.60;;;;;;;42.76;15.63;98766.94;12230665;19;20011;-85
2022/08/14 13:19:20;;;;;;;5.28;4.68;;;;;;;42.77;15.60;98767.72;12231291;19;20011;-84
2022/08/14 13:23:33;;;;;;;5.43;4.60;;;;;;;43.71;15.14;98755.50;12211102;19;20003;-84
2022/08/14 13:27:38;;;;;;;5.90;4.47;;;;;;;43.44;15.01;98768.22;12232882;19;20364;-83
2022/08/14 13:31:45;;;;;;;4.68;4.25;;;;;;;43.74;15.27;98750.81;12210336;19;20017;-84
2022/08/14 13:35:49;;;;;;;7.15;4.40;;;;;;;43.38;14.98;98753.63;12229976;19;20003;-84
2022/08/14 13:39:53;;;;;;;4.93;4.50;;;;;;;43.56;15.13;98748.94;12230621;19;20003;-84
2022/08/14 13:43:58;;;;;;;6.40;4.43;;;;;;;43.12;15.27;98729.41;12207736;19;20132;-84
2022/08/14 13:48:01;;;;;;;5.07;4.65;;;;;;;42.69;15.64;98740.41;12230735;19;20017;-84
2022/08/14 13:52:05;;;;;;;5.63;5.00;;;;;;;40.58;16.83;98731.25;12232753;19;20091;-84
2022/08/14 13:56:27;;;;;;;5.55;5.00;;;;;;;40.57;17.14;98712.28;12215029;19;20007;-86
2022/08/14 14:00:38;;;;;;;6.38;5.45;;;;;;;41.43;16.87;98711.22;12277177;19;20010;-84
2022/08/14 14:04:59;;;;;;;7.18;5.38;;;;;;;40.56;17.53;98710.69;12248003;19;20019;-84
2022/08/14 14:09:02;;;;;;;6.72;5.13;;;;;;;38.69;18.31;98705.91;12234049;19;20018;-85
2022/08/14 14:13:04;;;;;;;6.22;5.72;;;;;;;37.54;19.58;98711.94;12232293;19;19998;-83
2022/08/14 14:17:07;;;;;;;7.30;5.70;;;;;;;36.93;19.89;98705.13;12208171;19;20006;-83
2022/08/14 14:21:11;;;;;;;6.95;5.60;;;;;;;36.48;20.43;98693.72;12230079;19;20002;-83
2022/08/14 14:25:16;;;;;;;6.65;5.55;;;;;;;36.07;20.37;98686.63;12230963;19;20003;-83
2022/08/14 14:29:25;;;;;;;6.93;6.10;;;;;;;35.79;20.88;98677.50;12208171;19;20077;-83
2022/08/14 14:33:29;;;;;;;6.43;5.82;;;;;;;35.48;21.26;98676.22;12226139;19;20479;-84
2022/08/14 14:37:50;;;;;;;7.70;5.97;;;;;;;34.96;22.04;98679.84;12206023;19;20017;-84
2022/08/14 14:41:54;;;;;;;6.55;5.95;;;;;;;34.49;22.75;98675.88;12228614;19;20018;-83
2022/08/14 14:45:57;;;;;;;7.18;6.13;;;;;;;34.48;23.26;98679.19;12226779;19;20327;-82
2022/08/14 14:49:59;;;;;;;7.15;5.80;;;;;;;34.52;23.03;98667.69;12206181;19;20021;-83
2022/08/14 14:54:02;;;;;;;9.63;5.95;;;;;;;34.40;23.21;98663.41;12223981;19;20007;-83
2022/08/14 14:58:05;;;;;;;7.95;5.78;;;;;;;34.19;23.77;98665.44;12227499;19;20018;-82
2022/08/14 15:02:07;;;;;;;6.70;6.10;;;;;;;34.03;24.05;98669.03;12207498;19;20368;-83
2022/08/14 15:06:10;;;;;;;7.72;6.63;;;;;;;33.86;24.31;98666.47;12226671;19;20010;-83
2022/08/14 15:10:20;;;;;;;7.03;5.60;;;;;;;33.94;23.79;98660.19;12235127;19;20010;-83
2022/08/14 15:14:30;;;;;;;5.57;4.97;;;;;;;34.04;24.01;98649.81;12210357;19;20471;-82
2022/08/14 15:18:52;;;;;;;6.00;5.28;;;;;;;34.32;23.28;98654.16;12224367;19;20467;-82
2022/08/14 15:22:53;;;;;;;7.25;5.25;;;;;;;34.43;23.19;98645.38;12205573;19;20067;-82
2022/08/14 15:26:59;;;;;;;5.95;5.00;;;;;;;34.43;23.49;98643.31;12228046;19;20002;-82
2022/08/14 15:31:02;;;;;;;6.10;5.32;;;;;;;34.40;23.30;98631.97;12230845;19;20014;-82
2022/08/14 15:35:05;;;;;;;7.38;5.30;;;;;;;34.30;23.46;98638.69;12203105;19;20003;-82
2022/08/14 15:39:11;;;;;;;7.30;5.30;;;;;;;34.25;23.08;98632.25;12229153;19;20025;-82
2022/08/14 15:43:15;;;;;;;5.75;5.15;;;;;;;34.23;23.36;98628.19;12231789;19;20418;-83
2022/08/14 15:47:17;;;;;;;6.85;5.72;;;;;;;34.15;23.90;98630.41;12205902;19;20067;-84
2022/08/14 15:51:30;;;;;;;7.82;5.57;;;;;;;34.05;23.96;98630.59;12236920;19;20395;-84
2022/08/14 15:55:32;;;;;;;5.88;5.20;;;;;;;33.94;23.95;98645.06;12252553;19;20003;-82
2022/08/14 16:03:56;;;;;;;6.97;5.43;;;;;;;33.43;25.04;98632.88;12239187;19;20090;-83
2022/08/14 16:07:58;;;;;;;5.63;5.13;;;;;;;33.33;24.96;98635.47;12216320;19;20007;-82
2022/08/14 16:12:02;;;;;;;6.85;5.60;;;;;;;33.20;25.01;98630.78;12235342;19;20635;-82
2022/08/14 16:16:04;;;;;;;5.50;4.90;;;;;;;33.12;25.13;98619.47;12234216;19;20672;-82
2022/08/14 16:20:32;;;;;;;6.40;5.80;;;;;;;33.14;25.21;98624.78;12210868;19;20042;-82
2022/08/14 16:24:43;;;;;;;6.82;5.38;;;;;;;33.16;25.43;98621.47;12231779;19;20014;-82
2022/08/14 16:29:07;;;;;;;6.22;5.25;;;;;;;33.02;25.82;98619.63;12211668;19;20498;-82
2022/08/14 16:33:10;;;;;;;5.78;5.25;;;;;;;33.04;25.49;98617.16;12232846;19;20003;-82
2022/08/14 16:37:33;;;;;;;;;;;;;;;32.90;25.22;98612.47;12211124;19;20378;-82
2022/08/14 16:41:36;;;;;;;7.32;4.90;;;;;;;32.86;25.53;98603.94;12230811;19;19910;-82
2022/08/14 16:45:40;;;;;;;6.53;5.18;;;;;;;32.77;25.89;98614.28;12231387;19;20051;-82
2022/08/14 16:49:44;;;;;;;6.53;5.70;;;;;;;32.65;25.92;98616.47;12209035;19;20002;-82
2022/08/14 16:54:08;;;;;;;6.22;5.43;;;;;;;32.56;26.48;98604.78;12230554;19;20031;-82
2022/08/14 16:58:22;;;;;;;5.88;5.28;;;;;;;32.49;26.71;98599.16;12234853;19;20378;-82
2022/08/14 17:02:37;;;;;;;5.60;4.80;;;;;;;32.42;27.03;98594.34;12208876;19;20479;-82
2022/08/14 17:06:45;;;;;;;6.03;4.70;;;;;;;32.37;27.42;98591.16;12230587;19;20010;-83
2022/08/14 17:10:46;;;;;;;6.75;4.93;;;;;;;32.30;27.50;98585.53;12209587;19;20480;-82
2022/08/14 17:14:55;;;;;;;7.80;5.07;;;;;;;32.25;27.33;98588.88;12228709;19;20074;-82
2022/08/14 17:18:59;;;;;;;6.75;5.22;;;;;;;32.18;27.56;98589.75;12228090;19;20488;-82
2022/08/14 17:23:04;;;;;;;5.57;4.82;;;;;;;32.05;27.66;98586.66;12204514;19;19999;-82
2022/08/14 17:27:21;;;;;;;7.18;5.03;;;;;;;31.91;28.24;98592.50;12225531;19;20007;-82
2022/08/14 17:31:30;;;;;;;6.80;4.90;;;;;;;31.76;28.52;98586.91;12229151;19;20464;-82
2022/08/14 17:36:11;;;;;;;7.40;5.25;;;;;;;31.59;28.94;98585.06;12203316;19;20066;-82
2022/08/14 17:40:32;;;;;;;5.97;5.18;;;;;;;31.37;29.67;98581.59;12233978;19;20010;-82
2022/08/14 17:44:36;;;;;;;12.30;4.90;;;;;;;31.18;29.52;98585.00;12211185;19;20010;-82
2022/08/14 17:48:46;;;;;;;6.28;5.53;;;;;;;30.98;29.88;98582.69;12233643;19;20017;-82
2022/08/14 17:53:08;;;;;;;6.45;5.10;;;;;;;30.79;30.40;98597.47;12208071;19;20011;-81
2022/08/14 17:57:13;;;;;;;8.90;5.15;;;;;;;30.57;30.82;98591.03;12228965;19;20020;-81
2022/08/14 18:01:17;;;;;;;6.13;5.07;;;;;;;30.40;31.10;98593.56;12230529;19;20010;-81
2022/08/14 18:05:27;;;;;;;6.25;5.32;;;;;;;30.23;31.53;98587.97;12206646;19;20003;-82
2022/08/14 18:09:56;;;;;;;7.95;6.43;;;;;;;30.04;31.73;98589.19;12227155;19;20006;-81
2022/08/14 18:14:00;;;;;;;4.90;4.40;;;;;;;29.84;32.22;98594.53;12201091;19;20010;-81
2022/08/14 18:18:06;;;;;;;8.48;5.40;;;;;;;29.64;32.29;98588.50;12224837;19;20013;-82
2022/08/14 18:22:09;;;;;;;12.05;5.63;;;;;;;29.41;32.88;98595.38;12226333;19;20006;-82
2022/08/14 18:26:32;;;;;;;6.03;5.10;;;;;;;29.18;32.81;98592.13;12203642;19;20010;-82
2022/08/14 18:30:38;;;;;;;7.25;5.40;;;;;;;28.95;33.13;98592.50;12227296;19;20015;-82
2022/08/14 18:35:05;;;;;;;9.68;4.72;;;;;;;28.70;33.63;98600.94;12204428;19;20010;-81
2022/08/14 18:39:30;;;;;;;8.50;4.97;;;;;;;28.47;33.65;98607.75;12225674;19;20103;-81
2022/08/14 18:43:47;;;;;;;8.98;5.03;;;;;;;28.23;34.12;98606.44;12205506;19;20014;-81
2022/08/14 18:48:19;;;;;;;8.00;4.85;;;;;;;27.97;34.56;98604.66;12225532;19;20006;-81
2022/08/14 18:52:43;;;;;;;6.15;4.50;;;;;;;27.77;34.59;98606.13;12227168;19;20006;-82
2022/08/14 18:56:58;;;;;;;5.57;4.65;;;;;;;27.58;34.75;98619.34;12202638;19;20003;-81
2022/08/14 19:01:01;;;;;;;6.38;4.72;;;;;;;27.42;34.75;98621.63;12227360;19;20478;-82
2022/08/14 19:05:05;;;;;;;7.03;4.60;;;;;;;27.22;35.05;98621.06;12204722;19;20010;-81
2022/08/14 19:09:51;;;;;;;7.63;4.45;;;;;;;27.07;35.25;98620.09;12226700;19;20003;-81
2022/08/14 19:13:53;;;;;;;10.52;5.70;;;;;;;26.91;35.74;98622.34;12202364;19;20006;-81
2022/08/14 19:18:17;;;;;;;6.10;4.45;;;;;;;26.74;35.72;98618.97;12225482;19;20002;-81
2022/08/14 19:22:29;;;;;;;5.50;4.68;;;;;;;26.59;36.17;98620.81;12215774;19;20010;-81
2022/08/14 19:26:31;;;;;;;8.32;4.85;;;;;;;26.46;36.50;98621.44;12234418;19;19998;-82
2022/08/14 19:31:35;;;;;;;10.35;4.65;;;;;;;26.32;36.90;98620.03;12236637;19;20411;-81
2022/08/14 19:36:08;;;;;;;;;;;;;;;26.18;36.21;98624.72;12212595;19;20094;-81
2022/08/14 19:40:36;;;;;;;6.85;4.57;;;;;;;26.05;36.82;98626.94;12213145;19;19918;-81
2022/08/14 19:44:40;;;;;;;6.43;4.47;;;;;;;25.94;37.16;98623.16;12237024;19;20007;-82